Impacts TAF Board
For situational awareness. Not to be used for flight planning purposes.
IDs:

KIAH - Houston/Bush Intl, TX, US

Issued at 1730 UTC 13 Aug 2020
Updated at 2002 UTC 13 Aug 2020
Potential Impact None Slight Moderate High
Time<<14/09Z 14/10Z 14/11Z 14/12Z 14/13Z 14/14Z 14/15Z 14/16Z 14/17Z 14/18Z 14/19Z 14/20Z 14/21Z>>
Type PRVL PRVL PRVL PRVL PRVL PRVL PRVL PRVL PRVL PRVL PRVL PRVL PRVL
VIS >6 >6 >6 >6 >6 >6 >6 >6 >6 >6 >6 >6 >6
CIG -- -- -- -- -- -- -- -- -- -- -- -- --
Cover FEW FEW FEW FEW FEW FEW FEW FEW FEW FEW FEW FEW SCT
FltCat VFR VFR VFR VFR VFR VFR VFR VFR VFR VFR VFR VFR VFR
WX -- -- -- -- -- -- -- -- -- -- -- -- --
WDir 210 210 210 210 210 210 230 230 230 230 230 230 170
WSpd 4 4 4 4 4 4 9 9 9 9 9 9 8
WGst -- -- -- -- -- -- -- -- -- -- -- -- --
R08/26
XWnd -3 -3 -3 -3 -3 -3 -6 -6 -6 -6 -6 -6 -8
HWnd -2 -2 -2 -2 -2 -2 -7 -7 -7 -7 -7 -7 1
R09/27
XWnd -3 -3 -3 -3 -3 -3 -6 -6 -6 -6 -6 -6 -8
HWnd -2 -2 -2 -2 -2 -2 -7 -7 -7 -7 -7 -7 1
R15/33
XWnd -3 -3 -3 -3 -3 -3 -9 -9 -9 -9 -9 -9 -2
HWnd 2 2 2 2 2 2 2 2 2 2 2 2 8
Raw TAF
KIAH 131730Z 1318/1424 21007KT P6SM FEW040
  FM132100 17008KT P6SM SCT250
  FM140800 21004KT P6SM FEW250
  FM141500 23009KT P6SM FEW030
  FM142100 17008KT P6SM SCT250


METAR Board
Radar Display
Forecast Discussion
For situational awareness. Not to be used for flight planning purposes.